createdAt,value
2023-03-16T00:01:42.277Z,-3.10
2023-03-16T00:07:44.183Z,-3.10
2023-03-16T00:13:45.965Z,-3.20
2023-03-16T00:19:55.601Z,-3.20
2023-03-16T00:25:59.002Z,-3.20
2023-03-16T00:32:00.912Z,-3.20
2023-03-16T00:38:02.746Z,-3.10
2023-03-16T00:44:09.973Z,-3.10
2023-03-16T00:50:12.059Z,-3.10
2023-03-16T00:56:14.416Z,-3.20
2023-03-16T01:02:19.261Z,-3.20
2023-03-16T01:08:22.589Z,-3.20
2023-03-16T01:14:24.438Z,-3.20
2023-03-16T01:20:26.545Z,-3.20
2023-03-16T01:26:30.637Z,-3.20
2023-03-16T01:32:32.872Z,-3.20
2023-03-16T01:38:35.970Z,-3.20
2023-03-16T01:45:28.740Z,-3.20
2023-03-16T01:51:41.994Z,-3.30
2023-03-16T01:57:46.620Z,-3.30
2023-03-16T02:03:49.024Z,-3.30
2023-03-16T02:09:59.693Z,-3.30
2023-03-16T02:16:02.813Z,-3.30
2023-03-16T02:22:08.602Z,-3.20
2023-03-16T02:28:22.588Z,-3.20
2023-03-16T02:34:25.242Z,-3.20
2023-03-16T02:40:32.903Z,-3.30
2023-03-16T02:46:39.290Z,-3.30
2023-03-16T02:52:41.144Z,-3.30
2023-03-16T02:58:43.233Z,-3.30
2023-03-16T03:04:49.995Z,-3.30
2023-03-16T03:10:52.048Z,-3.30
2023-03-16T03:16:55.300Z,-3.30
2023-03-16T03:22:57.490Z,-3.10
2023-03-16T03:28:59.390Z,-3.10
2023-03-16T03:35:01.390Z,-3.00
2023-03-16T03:41:04.099Z,-2.90
2023-03-16T03:47:09.145Z,-2.40
2023-03-16T03:53:11.054Z,-2.20
2023-03-16T03:59:33.115Z,-1.80
2023-03-16T04:05:47.600Z,-1.70
2023-03-16T04:11:49.706Z,-1.70
2023-03-16T04:17:54.752Z,-1.60
2023-03-16T04:23:56.699Z,-1.50
2023-03-16T04:30:11.720Z,-1.50
2023-03-16T04:36:17.378Z,-1.50
2023-03-16T04:42:20.034Z,-1.50
2023-03-16T04:48:25.948Z,-1.40
2023-03-16T04:54:28.187Z,-1.40
2023-03-16T05:00:30.567Z,-1.30
2023-03-16T05:06:43.040Z,-1.40
2023-03-16T05:12:46.882Z,-1.40
2023-03-16T05:18:49.343Z,-1.40
2023-03-16T05:24:54.021Z,-1.40
2023-03-16T05:30:56.522Z,-1.40
2023-03-16T05:37:01.747Z,-1.40
2023-03-16T05:43:04.620Z,-1.40
2023-03-16T05:49:13.068Z,-1.40
2023-03-16T05:55:16.967Z,-1.30
2023-03-16T06:01:22.202Z,-1.30
2023-03-16T06:07:24.862Z,-1.20
2023-03-16T06:13:30.020Z,-1.10
2023-03-16T06:19:32.205Z,-0.80
2023-03-16T06:25:39.465Z,-0.60
2023-03-16T06:31:42.977Z,-0.40
2023-03-16T06:37:45.919Z,-0.10
2023-03-16T06:44:02.733Z,0.00
2023-03-16T06:50:05.407Z,0.20
2023-03-16T06:56:07.514Z,0.30
2023-03-16T07:02:15.013Z,0.50
2023-03-16T07:08:17.174Z,0.80
2023-03-16T07:14:19.963Z,1.00
2023-03-16T07:20:23.904Z,1.50
2023-03-16T07:26:26.061Z,1.90
2023-03-16T07:32:33.017Z,2.30
2023-03-16T07:38:35.859Z,2.50
2023-03-16T07:44:38.574Z,2.80
2023-03-16T07:50:41.512Z,2.90
2023-03-16T07:56:49.283Z,3.10
2023-03-16T08:03:02.772Z,3.20
2023-03-16T08:09:05.876Z,3.40
2023-03-16T08:15:11.791Z,3.50
2023-03-16T08:21:15.375Z,3.80
2023-03-16T08:27:19.738Z,4.20
2023-03-16T08:33:26.054Z,4.50
2023-03-16T08:39:29.056Z,4.70
2023-03-16T08:45:33.352Z,4.80
2023-03-16T08:51:35.219Z,4.60
2023-03-16T08:57:39.287Z,4.40
2023-03-16T09:03:42.354Z,4.50
2023-03-16T09:09:45.219Z,4.70
2023-03-16T09:15:47.690Z,5.00
2023-03-16T09:21:49.459Z,5.00
2023-03-16T09:27:51.679Z,5.10
2023-03-16T09:33:54.534Z,5.30
2023-03-16T09:40:03.246Z,5.50
2023-03-16T09:46:36.304Z,5.70
2023-03-16T09:52:57.566Z,5.70
2023-03-16T09:59:00.011Z,5.90
2023-03-16T10:05:17.037Z,6.10
2023-03-16T10:11:44.860Z,6.40
2023-03-16T10:17:52.594Z,6.50
2023-03-16T10:23:58.998Z,6.50
2023-03-16T10:30:04.553Z,6.80
2023-03-16T10:36:15.816Z,7.00
2023-03-16T10:42:20.110Z,7.10
2023-03-16T10:48:22.150Z,7.20
2023-03-16T10:54:40.009Z,7.40
2023-03-16T11:00:43.483Z,7.70
2023-03-16T11:06:56.965Z,8.00
2023-03-16T11:13:17.629Z,8.20
2023-03-16T11:19:46.475Z,8.30
2023-03-16T11:25:54.336Z,8.40
2023-03-16T11:32:04.351Z,8.40
2023-03-16T11:38:36.213Z,8.40
2023-03-16T11:44:44.627Z,8.50
2023-03-16T11:50:50.401Z,8.80
2023-03-16T11:56:59.826Z,8.60
2023-03-16T12:03:40.089Z,8.70
2023-03-16T12:09:50.706Z,9.10
2023-03-16T12:15:56.986Z,9.20
2023-03-16T12:22:13.718Z,9.30
2023-03-16T12:28:23.927Z,9.30
2023-03-16T12:34:40.915Z,9.60
2023-03-16T12:40:55.860Z,9.80
2023-03-16T12:47:48.690Z,10.00
2023-03-16T12:53:55.290Z,10.30
2023-03-16T13:00:00.735Z,10.70
2023-03-16T13:06:03.462Z,10.50
2023-03-16T13:12:06.614Z,10.70
2023-03-16T13:18:14.938Z,10.90
2023-03-16T13:24:28.860Z,10.70
2023-03-16T13:30:33.567Z,11.30
2023-03-16T13:36:37.048Z,11.20
2023-03-16T13:42:38.839Z,10.70
2023-03-16T13:48:41.723Z,10.40
2023-03-16T13:54:43.706Z,10.60
2023-03-16T14:00:45.876Z,10.60
2023-03-16T14:07:02.361Z,10.80
2023-03-16T14:13:09.613Z,10.90
2023-03-16T14:19:22.624Z,10.70
2023-03-16T14:25:27.923Z,10.40
2023-03-16T14:31:39.681Z,10.30
2023-03-16T14:37:42.427Z,10.50
2023-03-16T14:43:49.729Z,10.70
2023-03-16T14:49:52.188Z,10.70
2023-03-16T14:55:58.172Z,10.90
2023-03-16T15:02:03.310Z,10.90
2023-03-16T15:08:10.900Z,11.00
2023-03-16T15:14:35.456Z,10.80
2023-03-16T15:20:44.192Z,10.70
2023-03-16T15:26:46.057Z,10.00
2023-03-16T15:32:48.067Z,9.80
2023-03-16T15:38:53.689Z,9.70
2023-03-16T15:44:55.780Z,9.60
2023-03-16T15:51:01.768Z,9.50
2023-03-16T15:57:03.768Z,9.50
2023-03-16T16:03:07.275Z,9.20
2023-03-16T16:09:09.268Z,9.10
2023-03-16T16:15:29.637Z,8.90
2023-03-16T16:21:32.599Z,8.60
2023-03-16T16:27:34.392Z,8.40
2023-03-16T16:33:37.200Z,8.20
2023-03-16T16:39:39.349Z,8.20
2023-03-16T16:45:41.187Z,8.10
2023-03-16T16:51:43.300Z,8.10
2023-03-16T16:57:45.657Z,8.10
2023-03-16T17:03:47.422Z,7.90
2023-03-16T17:09:49.222Z,7.50
2023-03-16T17:15:51.134Z,7.20
2023-03-16T17:21:55.382Z,6.90
2023-03-16T17:27:58.027Z,6.80
2023-03-16T17:33:59.920Z,6.40
2023-03-16T17:40:01.730Z,6.20
2023-03-16T17:46:04.957Z,6.00
2023-03-16T17:52:21.654Z,6.00
2023-03-16T17:58:31.464Z,5.90
2023-03-16T18:04:33.575Z,5.90
2023-03-16T18:10:36.940Z,5.90
2023-03-16T18:16:39.229Z,5.80
2023-03-16T18:22:42.658Z,5.80
2023-03-16T18:28:45.719Z,5.90
2023-03-16T18:34:48.075Z,5.90
2023-03-16T18:40:49.920Z,5.90
2023-03-16T18:46:57.480Z,5.80
2023-03-16T18:52:59.412Z,5.70
2023-03-16T18:59:02.250Z,5.80
2023-03-16T19:05:07.665Z,5.70
2023-03-16T19:11:11.045Z,5.70
2023-03-16T19:17:12.903Z,5.50
2023-03-16T19:23:35.284Z,5.50
2023-03-16T19:29:37.211Z,5.40
2023-03-16T19:35:51.104Z,5.30
2023-03-16T19:42:00.021Z,5.10
2023-03-16T19:48:02.384Z,5.10
2023-03-16T19:54:04.351Z,5.10
2023-03-16T20:00:07.792Z,5.00
2023-03-16T20:06:14.744Z,5.00
2023-03-16T20:12:23.016Z,5.00
2023-03-16T20:18:24.938Z,5.00
2023-03-16T20:24:28.752Z,5.00
2023-03-16T20:30:31.911Z,5.10
2023-03-16T20:36:33.700Z,5.00
2023-03-16T20:42:36.934Z,5.00
2023-03-16T20:48:38.761Z,5.00
2023-03-16T20:54:40.517Z,5.10
2023-03-16T21:00:44.328Z,5.20
2023-03-16T21:06:48.831Z,5.10
2023-03-16T21:12:56.545Z,5.00
2023-03-16T21:18:58.283Z,5.00
2023-03-16T21:25:00.407Z,4.90
2023-03-16T21:31:02.999Z,4.80
2023-03-16T21:37:13.461Z,4.70
2023-03-16T21:43:16.508Z,4.60
2023-03-16T21:49:21.717Z,4.70
2023-03-16T21:55:26.964Z,4.60
2023-03-16T22:01:31.465Z,4.50
2023-03-16T22:07:33.339Z,4.50
2023-03-16T22:13:35.243Z,4.60
2023-03-16T22:19:37.163Z,4.60
2023-03-16T22:25:38.921Z,4.60
2023-03-16T22:31:41.279Z,4.70
2023-03-16T22:37:43.159Z,4.70
2023-03-16T22:43:45.920Z,4.80
2023-03-16T22:49:47.822Z,4.80
2023-03-16T22:55:51.008Z,4.80
2023-03-16T23:01:59.019Z,4.80
2023-03-16T23:08:02.580Z,4.70
2023-03-16T23:14:14.190Z,4.60
2023-03-16T23:20:32.000Z,4.50
2023-03-16T23:26:33.984Z,4.40
2023-03-16T23:32:35.848Z,4.30
2023-03-16T23:38:37.669Z,4.30
2023-03-16T23:44:39.562Z,4.20
2023-03-16T23:50:42.076Z,4.20
2023-03-16T23:56:43.879Z,4.30
